Time;durP1;ratioP1;P1;durP2;ratioP2;P2;SDS_P1;SDS_P2;PMS_P1;PMS_P2;Temp;Humidity;BMP_temperature;BMP_pressure;BME280_temperature;BME280_humidity;BME280_pressure;Samples;Min_cycle;Max_cycle;Signal;HPM_P1;HPM_P2
2022/05/05 00:01:50;;;;;;;0.50;0.50;;;14.30;99.90;14.40;101808.00;;;;5121168;27;20192;-69
2022/05/05 00:04:21;;;;;;;0.50;0.50;;;14.30;99.90;13.90;101803.00;;;;5122041;27;20262;-69
2022/05/05 00:06:48;;;;;;;0.40;0.40;;;14.10;99.90;14.20;101811.00;;;;5138627;27;20176;-69
2022/05/05 00:09:14;;;;;;;0.50;0.50;;;14.20;99.90;14.00;101815.00;;;;5121914;27;20541;-69
2022/05/05 00:14:33;;;;;;;0.40;0.40;;;13.90;99.90;13.80;101804.00;;;;5140311;27;20190;-69
2022/05/05 00:17:09;;;;;;;1.33;1.23;;;13.70;99.90;13.60;101810.00;;;;5138486;27;20167;-70
2022/05/05 00:19:37;;;;;;;0.40;0.40;;;13.60;99.90;13.30;101812.00;;;;5121981;27;20177;-68
2022/05/05 00:22:05;;;;;;;0.40;0.40;;;13.50;99.90;13.70;101797.00;;;;5138702;27;20189;-69
2022/05/05 00:24:32;;;;;;;0.60;0.60;;;13.50;99.90;13.70;101814.00;;;;5138238;27;20538;-69
2022/05/05 00:27:00;;;;;;;0.50;0.50;;;13.60;99.90;13.50;101807.00;;;;5137782;27;20337;-69
2022/05/05 00:29:27;;;;;;;0.40;0.40;;;13.50;99.90;13.30;101807.00;;;;5138707;27;20183;-70
2022/05/05 00:31:57;;;;;;;0.93;0.93;;;13.40;99.90;13.30;101809.00;;;;5137520;27;20225;-69
2022/05/05 00:34:23;;;;;;;0.70;0.70;;;13.40;99.90;12.70;101806.00;;;;5120265;27;20187;-69
2022/05/05 00:36:51;;;;;;;0.30;0.30;;;13.20;99.90;12.70;101810.00;;;;5121188;27;20181;-69
2022/05/05 00:39:20;;;;;;;1.40;1.37;;;13.10;99.90;12.80;101795.00;;;;5121514;27;20523;-69
2022/05/05 00:41:47;;;;;;;0.40;0.40;;;13.10;99.90;13.00;101817.00;;;;5120354;27;20641;-69
2022/05/05 00:44:15;;;;;;;0.33;0.33;;;13.10;99.90;13.30;101784.00;;;;5138146;27;20187;-69
2022/05/05 00:46:51;;;;;;;1.27;1.27;;;13.10;99.90;13.80;101800.00;;;;5137572;27;20258;-69
2022/05/05 00:49:20;;;;;;;0.40;0.40;;;13.50;99.90;14.10;101796.00;;;;5157041;27;20206;-69
2022/05/05 00:51:48;;;;;;;0.80;0.80;;;13.80;99.90;14.00;101796.00;;;;5137969;27;20176;-69
2022/05/05 00:54:17;;;;;;;0.40;0.40;;;13.80;99.90;13.90;101794.00;;;;5120599;27;20182;-69
2022/05/05 00:56:47;;;;;;;0.40;0.40;;;13.80;99.90;13.50;101796.00;;;;5119892;27;20206;-68
2022/05/05 00:59:16;;;;;;;0.90;0.90;;;13.60;99.90;13.90;101790.00;;;;5137999;27;20632;-69
2022/05/05 01:01:44;;;;;;;0.50;0.50;;;13.70;99.90;13.70;101802.00;;;;5138279;27;20187;-69
2022/05/05 01:04:13;;;;;;;0.50;0.50;;;13.70;99.90;13.60;101773.00;;;;5121172;27;20184;-69
2022/05/05 01:06:39;;;;;;;0.50;0.50;;;13.70;99.90;14.00;101804.00;;;;5137566;27;20246;-69
2022/05/05 01:09:08;;;;;;;0.40;0.40;;;13.80;99.90;13.40;101764.00;;;;5119741;27;20271;-69
2022/05/05 01:11:36;;;;;;;0.40;0.40;;;13.70;99.90;13.90;101756.00;;;;5137620;27;20584;-69
2022/05/05 01:14:06;;;;;;;0.70;0.70;;;13.70;99.90;14.00;101800.00;;;;5119806;27;20185;-69
2022/05/05 01:16:34;;;;;;;0.40;0.40;;;13.90;99.90;13.20;101798.00;;;;5138310;27;20158;-69
2022/05/05 01:19:00;;;;;;;0.40;0.40;;;13.60;99.90;12.90;101798.00;;;;5120288;27;20524;-68
2022/05/05 01:21:28;;;;;;;0.37;0.37;;;13.40;99.90;13.40;101795.00;;;;5154137;27;20188;-68
2022/05/05 01:23:57;;;;;;;0.40;0.40;;;13.40;99.90;13.50;101799.00;;;;5119900;27;20287;-68
2022/05/05 01:29:14;;;;;;;0.87;0.87;;;13.40;99.90;13.60;101793.00;;;;5139332;27;20238;-68
2022/05/05 01:31:43;;;;;;;0.40;0.40;;;13.60;99.90;13.50;101753.00;;;;5118452;27;20187;-69
2022/05/05 01:34:13;;;;;;;0.40;0.40;;;13.50;99.90;13.90;101804.00;;;;5135719;27;20545;-69
2022/05/05 01:36:39;;;;;;;0.90;0.90;;;13.70;99.90;14.10;101796.00;;;;5136227;27;20178;-69
2022/05/05 01:39:10;;;;;;;0.63;0.63;;;13.80;99.90;14.10;101798.00;;;;5118815;27;20179;-69
2022/05/05 01:41:41;;;;;;;0.40;0.40;;;13.90;99.90;13.80;101806.00;;;;5137343;27;20183;-69
2022/05/05 01:44:10;;;;;;;0.60;0.60;;;13.90;99.90;13.10;101800.00;;;;5119207;27;20217;-69
2022/05/05 01:46:36;;;;;;;0.40;0.40;;;13.60;99.90;12.80;101794.00;;;;5119583;27;20635;-68
2022/05/05 01:49:01;;;;;;;0.73;0.73;;;13.30;99.90;13.00;101799.00;;;;5119514;27;20187;-68
2022/05/05 01:51:32;;;;;;;0.63;0.63;;;13.20;99.90;13.60;101758.00;;;;5119032;27;20185;-69
2022/05/05 01:54:01;;;;;;;0.40;0.40;;;13.40;99.90;13.90;101801.00;;;;5119119;27;20173;-69
2022/05/05 01:56:27;;;;;;;0.40;0.40;;;13.60;99.90;13.80;101780.00;;;;5118796;27;20189;-69
2022/05/05 01:58:55;;;;;;;0.40;0.40;;;13.70;99.90;14.10;101798.00;;;;5118502;27;20179;-69
2022/05/05 02:01:21;;;;;;;4.73;4.33;;;13.90;99.90;13.50;101806.00;;;;5118164;27;20564;-69
2022/05/05 02:03:47;;;;;;;0.50;0.50;;;13.70;99.90;13.70;101813.00;;;;5116870;27;20197;-69
2022/05/05 02:06:13;;;;;;;0.40;0.40;;;13.60;99.90;14.00;101800.00;;;;5137026;27;20169;-69
2022/05/05 02:08:41;;;;;;;0.50;0.50;;;13.80;99.90;14.00;101798.00;;;;5137316;27;20166;-69
2022/05/05 02:11:10;;;;;;;3.23;3.03;;;13.80;99.90;14.00;101802.00;;;;5136607;27;20300;-70
2022/05/05 02:13:39;;;;;;;0.50;0.50;;;13.80;99.90;13.90;101804.00;;;;5135641;27;20688;-71
2022/05/05 02:16:07;;;;;;;0.50;0.50;;;13.80;99.90;13.70;101817.00;;;;5134717;27;20180;-70
2022/05/05 02:18:34;;;;;;;0.50;0.50;;;13.70;99.90;13.80;101807.00;;;;5137432;27;20657;-69
2022/05/05 02:21:03;;;;;;;0.40;0.40;;;13.70;99.90;13.70;101821.00;;;;5117809;27;20184;-69
2022/05/05 02:23:37;;;;;;;0.40;0.40;;;13.70;99.90;12.80;101803.00;;;;5119668;27;20172;-69
2022/05/05 02:26:14;;;;;;;0.40;0.40;;;13.30;99.90;13.30;101802.00;;;;5137371;27;20190;-69
2022/05/05 02:28:42;;;;;;;0.40;0.40;;;13.20;99.90;13.30;101811.00;;;;5136749;27;20176;-69
2022/05/05 02:31:08;;;;;;;0.40;0.40;;;13.30;99.90;13.40;101766.00;;;;5119316;27;20220;-68
2022/05/05 02:33:42;;;;;;;0.50;0.50;;;13.30;99.90;13.60;101808.00;;;;5118770;27;20219;-68
2022/05/05 02:39:00;;;;;;;0.40;0.40;;;13.50;99.90;13.20;101815.00;;;;5154790;27;20684;-69
2022/05/05 02:41:29;;;;;;;0.40;0.40;;;13.40;99.90;13.20;101823.00;;;;5119604;27;20205;-69
2022/05/05 02:43:57;;;;;;;0.40;0.40;;;13.30;99.90;13.90;101813.00;;;;5135157;27;20172;-69
2022/05/05 02:46:28;;;;;;;0.70;0.70;;;13.70;99.90;13.80;101803.00;;;;5118425;27;20239;-69
2022/05/05 02:49:01;;;;;;;0.40;0.40;;;13.70;99.90;13.00;101806.00;;;;5118983;27;20631;-69
2022/05/05 02:51:38;;;;;;;0.40;0.40;;;13.50;99.90;12.80;101815.00;;;;5136349;27;20278;-69
2022/05/05 02:56:49;;;;;;;0.40;0.40;;;13.10;99.90;12.80;101804.00;;;;5139154;27;20184;-70
2022/05/05 02:59:18;;;;;;;0.37;0.37;;;13.00;99.90;12.60;101801.00;;;;5117393;27;20179;-69
2022/05/05 03:01:43;;;;;;;0.30;0.30;;;12.90;99.90;12.70;101813.00;;;;5117869;27;20274;-71
2022/05/05 03:04:12;;;;;;;0.40;0.40;;;12.90;99.90;12.80;101800.00;;;;5119090;27;20636;-70
2022/05/05 03:06:46;;;;;;;0.37;0.37;;;12.90;99.90;12.90;101776.00;;;;5136740;27;20180;-71
2022/05/05 03:09:14;;;;;;;0.30;0.30;;;13.00;99.90;12.80;101799.00;;;;5117831;27;20411;-70
2022/05/05 03:11:43;;;;;;;0.50;0.50;;;13.00;99.90;13.40;101814.00;;;;5152492;27;20172;-71
2022/05/05 03:14:11;;;;;;;0.73;0.73;;;13.10;99.90;13.20;101804.00;;;;5116171;27;20279;-71
2022/05/05 03:16:47;;;;;;;0.30;0.30;;;13.20;99.90;13.00;101750.00;;;;5119190;27;20258;-70
2022/05/05 03:19:13;;;;;;;0.30;0.30;;;13.20;99.90;13.20;101804.00;;;;5153800;27;20743;-70
2022/05/05 03:21:41;;;;;;;0.40;0.40;;;13.20;99.90;12.80;101801.00;;;;5120537;27;20259;-70
2022/05/05 03:24:10;;;;;;;0.30;0.30;;;13.10;99.90;12.80;101793.00;;;;5138587;27;20185;-70
2022/05/05 03:26:37;;;;;;;0.30;0.30;;;13.00;99.90;12.50;101806.00;;;;5122637;27;20176;-71
2022/05/05 03:29:04;;;;;;;0.30;0.30;;;13.00;99.90;12.80;101811.00;;;;5140049;27;20185;-71
2022/05/05 03:31:31;;;;;;;0.40;0.40;;;13.00;99.90;12.80;101792.00;;;;5121474;27;20171;-71
2022/05/05 03:33:57;;;;;;;0.30;0.30;;;13.00;99.90;12.70;101804.00;;;;5139057;27;20223;-71
2022/05/05 03:36:25;;;;;;;0.40;0.40;;;12.90;99.90;13.00;101805.00;;;;5121258;27;20176;-72
2022/05/05 03:38:54;;;;;;;0.30;0.30;;;13.00;99.90;13.20;101808.00;;;;5122827;27;20185;-72
2022/05/05 03:41:23;;;;;;;0.40;0.40;;;13.20;99.90;13.50;101798.00;;;;5157256;27;20539;-72
2022/05/05 03:43:52;;;;;;;0.30;0.30;;;13.30;99.90;13.60;101806.00;;;;5138584;27;20180;-72
2022/05/05 03:46:26;;;;;;;0.30;0.30;;;13.40;99.90;12.80;101800.00;;;;5139584;27;20204;-71
2022/05/05 03:49:00;;;;;;;0.30;0.30;;;13.30;99.90;13.10;101821.00;;;;5138756;27;20507;-71
2022/05/05 03:51:28;;;;;;;1.27;1.27;;;13.40;99.90;13.40;101810.00;;;;5139064;27;20174;-71
2022/05/05 03:54:04;;;;;;;0.77;0.77;;;13.50;99.90;12.80;101814.00;;;;5120506;27;20200;-70
2022/05/05 03:56:33;;;;;;;0.30;0.30;;;13.40;99.90;12.40;101812.00;;;;5122166;27;20191;-70
2022/05/05 03:59:02;;;;;;;0.30;0.30;;;13.00;99.90;12.40;101817.00;;;;5138189;27;20697;-70
2022/05/05 04:01:31;;;;;;;0.50;0.50;;;12.90;99.90;13.00;101822.00;;;;5121506;27;20235;-70
2022/05/05 04:03:57;;;;;;;0.30;0.30;;;12.90;99.90;13.00;101826.00;;;;5139937;27;20215;-70
2022/05/05 04:06:23;;;;;;;0.30;0.30;;;13.10;99.90;13.30;101820.00;;;;5120440;27;20645;-70
2022/05/05 04:08:49;;;;;;;0.30;0.30;;;13.20;99.90;13.20;101823.00;;;;5120742;27;20180;-70
2022/05/05 04:11:19;;;;;;;0.30;0.30;;;13.30;99.90;12.70;101828.00;;;;5138329;27;20267;-70
2022/05/05 04:13:46;;;;;;;0.80;0.80;;;13.10;99.90;12.70;101818.00;;;;5139283;27;20239;-70
2022/05/05 04:16:15;;;;;;;1.23;1.17;;;13.00;99.90;13.20;101827.00;;;;5138351;27;20695;-70
2022/05/05 04:18:41;;;;;;;0.60;0.40;;;13.10;99.90;12.60;101837.00;;;;5138155;27;20186;-71
2022/05/05 04:21:07;;;;;;;0.30;0.30;;;13.10;99.90;12.40;101827.00;;;;5121176;27;20186;-70
2022/05/05 04:23:39;;;;;;;6.33;6.03;;;12.90;99.90;12.90;101841.00;;;;5138136;27;20236;-70
2022/05/05 04:26:05;;;;;;;1.23;1.13;;;13.00;99.90;12.90;101834.00;;;;5120899;27;20172;-70
2022/05/05 04:28:39;;;;;;;0.30;0.30;;;13.10;99.90;12.90;101842.00;;;;5137269;27;20171;-70
2022/05/05 04:31:17;;;;;;;0.63;0.63;;;13.10;99.90;12.90;101836.00;;;;5120649;27;20183;-69
2022/05/05 04:33:44;;;;;;;2.70;2.60;;;13.10;99.90;13.10;101823.00;;;;5121509;27;20219;-71
2022/05/05 04:36:14;;;;;;;1.63;1.53;;;13.30;99.90;13.60;101827.00;;;;5156038;27;20176;-70
2022/05/05 04:38:40;;;;;;;1.63;1.13;;;13.30;99.90;13.40;101838.00;;;;5155851;27;20177;-71
2022/05/05 04:41:06;;;;;;;0.30;0.30;;;13.50;99.90;13.10;101842.00;;;;5137798;27;20250;-70
2022/05/05 04:43:32;;;;;;;1.37;1.30;;;13.30;99.90;13.50;101838.00;;;;5121110;27;20686;-72
2022/05/05 04:45:58;;;;;;;0.40;0.40;;;13.40;99.90;13.50;101838.00;;;;5138315;27;20233;-71
2022/05/05 04:48:24;;;;;;;0.40;0.40;;;13.50;99.90;13.00;101844.00;;;;5119872;27;20654;-71
2022/05/05 04:50:53;;;;;;;1.57;1.43;;;13.30;99.90;13.40;101844.00;;;;5137993;27;20685;-71
2022/05/05 04:53:26;;;;;;;4.33;1.97;;;13.40;99.90;12.40;101819.00;;;;5120292;27;20245;-71
2022/05/05 04:55:57;;;;;;;0.90;0.90;;;13.10;99.90;12.30;101859.00;;;;5137880;27;20181;-71
2022/05/05 04:58:25;;;;;;;1.23;1.23;;;12.90;99.90;12.20;101853.00;;;;5120735;27;20184;-72
2022/05/05 05:00:53;;;;;;;0.30;0.30;;;12.70;99.90;12.10;101863.00;;;;5120503;27;20179;-71
2022/05/05 05:03:35;;;;;;;0.77;0.77;;;12.60;99.90;12.50;101865.00;;;;5137857;27;20547;-71
2022/05/05 05:06:03;;;;;;;1.40;1.40;;;12.80;99.90;12.30;101863.00;;;;5122349;27;20208;-70
2022/05/05 05:08:31;;;;;;;3.57;3.27;;;12.70;99.90;12.80;101855.00;;;;5137573;27;20184;-70
2022/05/05 05:10:58;;;;;;;5.30;2.90;;;12.90;99.90;12.90;101875.00;;;;5118825;27;20175;-70
2022/05/05 05:13:24;;;;;;;5.67;2.57;;;13.00;99.90;12.70;101885.00;;;;5120228;27;20236;-70
2022/05/05 05:15:55;;;;;;;0.40;0.40;;;13.00;99.90;12.70;101882.00;;;;5120378;27;20215;-70
2022/05/05 05:18:24;;;;;;;2.33;2.23;;;13.00;99.90;12.60;101879.00;;;;5119851;27;20176;-70
2022/05/05 05:20:57;;;;;;;3.10;2.80;;;13.10;99.90;12.90;101882.00;;;;5119058;27;20181;-70
2022/05/05 05:23:24;;;;;;;1.73;1.63;;;13.30;99.90;12.50;101877.00;;;;5120505;27;20704;-70
2022/05/05 05:25:53;;;;;;;4.43;4.20;;;13.10;99.90;12.70;101891.00;;;;5137835;27;20185;-70
2022/05/05 05:28:21;;;;;;;10.93;4.53;;;13.20;99.90;12.90;101895.00;;;;5119174;27;20172;-70
2022/05/05 05:30:50;;;;;;;7.00;4.00;;;13.20;99.90;13.30;101895.00;;;;5119984;27;20200;-70
2022/05/05 05:33:21;;;;;;;4.47;3.40;;;13.50;99.90;12.20;101847.00;;;;5119638;27;20212;-69
2022/05/05 05:35:55;;;;;;;2.37;2.27;;;13.00;99.90;12.40;101859.00;;;;5137588;27;20168;-71
2022/05/05 05:38:21;;;;;;;1.93;1.77;;;12.90;99.90;13.00;101903.00;;;;5136356;27;20173;-70
2022/05/05 05:40:47;;;;;;;0.60;0.60;;;13.30;99.90;12.90;101902.00;;;;5120258;27;20181;-70
2022/05/05 05:43:14;;;;;;;2.03;1.93;;;13.30;99.90;12.50;101907.00;;;;5136342;27;20178;-70
2022/05/05 05:45:43;;;;;;;2.77;1.30;;;13.20;99.90;12.60;101922.00;;;;5136680;27;20168;-70
2022/05/05 05:48:12;;;;;;;1.13;1.10;;;13.10;99.90;12.60;101920.00;;;;5137522;27;20658;-70
2022/05/05 05:50:38;;;;;;;3.60;2.77;;;13.10;99.90;12.80;101918.00;;;;5120470;27;20276;-70
2022/05/05 05:53:08;;;;;;;0.90;0.90;;;13.20;99.90;13.30;101931.00;;;;5119665;27;20851;-70
2022/05/05 05:55:34;;;;;;;4.70;3.60;;;13.60;99.90;12.80;101929.00;;;;5120367;27;20195;-70
2022/05/05 05:58:06;;;;;;;2.20;2.10;;;13.40;99.90;12.80;101890.00;;;;5119777;27;20181;-68
2022/05/05 06:00:34;;;;;;;0.40;0.40;;;13.30;99.90;13.30;101926.00;;;;5137007;27;20170;-69
2022/05/05 06:07:01;;;;;;;1.20;1.20;;;14.00;99.90;16.30;101926.00;;;;5139659;27;20604;-70
2022/05/05 06:09:35;;;;;;;0.60;0.60;;;15.50;99.90;15.60;101931.00;;;;5049395;27;20187;-70
2022/05/05 06:12:03;;;;;;;0.20;0.20;;;16.00;99.90;16.50;101914.00;;;;5136013;27;20199;-70
2022/05/05 06:14:30;;;;;;;0.30;0.30;;;16.20;99.90;17.00;101925.00;;;;5110593;27;20196;-71
2022/05/05 06:17:01;;;;;;;0.63;0.63;;;16.70;99.90;17.30;101889.00;;;;5136142;27;20213;-72
2022/05/05 06:19:29;;;;;;;0.30;0.30;;;17.00;99.90;17.60;101930.00;;;;5155466;27;20201;-72
2022/05/05 06:21:55;;;;;;;0.23;0.23;;;17.40;99.90;17.00;101928.00;;;;5136535;27;20226;-71
2022/05/05 06:24:24;;;;;;;2.63;2.43;;;17.20;99.90;17.40;101931.00;;;;5119739;27;20684;-71
2022/05/05 06:26:49;;;;;;;3.30;3.10;;;17.40;99.90;17.20;101932.00;;;;5119457;27;20185;-70
2022/05/05 06:29:15;;;;;;;0.50;0.50;;;17.30;99.90;18.40;101932.00;;;;5135218;27;20198;-70
2022/05/05 06:31:41;;;;;;;2.10;2.00;;;17.90;99.90;20.10;101960.00;;;;5135974;27;20271;-71
2022/05/05 06:34:09;;;;;;;0.20;0.20;;;19.20;99.90;21.10;101987.00;;;;5136404;27;20183;-69
2022/05/05 06:36:38;;;;;;;1.00;0.98;;;20.30;99.90;21.60;102011.00;;;;5119846;27;20181;-65
2022/05/05 06:39:06;;;;;;;0.30;0.30;;;20.90;99.90;21.20;102006.00;;;;5155028;27;20186;-69
2022/05/05 06:41:32;;;;;;;0.20;0.20;;;20.80;99.90;19.40;102005.00;;;;5135870;27;20632;-69
2022/05/05 06:44:06;;;;;;;0.30;0.30;;;20.20;99.90;19.70;102004.00;;;;5118446;27;20597;-70
2022/05/05 06:46:33;;;;;;;0.30;0.30;;;19.70;99.90;19.70;102004.00;;;;5119228;27;20174;-71
2022/05/05 06:49:01;;;;;;;1.50;1.40;;;19.60;99.90;19.70;101998.00;;;;5119262;27;20578;-69
2022/05/05 06:51:29;;;;;;;1.67;1.60;;;19.30;99.90;19.40;102014.00;;;;5119632;27;20247;-70
2022/05/05 06:53:55;;;;;;;3.50;0.75;;;19.20;99.90;18.10;101991.00;;;;5137321;27;20216;-71
2022/05/05 06:56:24;;;;;;;4.40;3.57;;;18.60;99.90;16.60;101947.00;;;;5123423;27;20181;-71
2022/05/05 06:58:52;;;;;;;0.30;0.30;;;17.30;99.90;17.30;101911.00;;;;5140877;27;20182;-71
2022/05/05 07:07:10;;;;;;;0.30;0.30;;;16.80;99.90;14.60;101944.00;;;;5143104;27;20208;-69
2022/05/05 07:12:29;;;;;;;1.43;1.33;;;15.90;99.90;16.10;101949.00;;;;5142748;27;20260;-69
2022/05/05 07:15:00;;;;;;;2.93;2.83;;;16.20;99.90;17.00;101948.00;;;;5122698;27;20187;-69
2022/05/05 07:17:31;;;;;;;0.30;0.30;;;16.70;99.90;17.10;101939.00;;;;5122943;27;20561;-69
2022/05/05 07:20:00;;;;;;;0.60;0.60;;;16.90;99.90;17.30;101953.00;;;;5158467;27;20563;-70
2022/05/05 07:22:26;;;;;;;2.13;1.93;;;17.30;99.90;17.40;101966.00;;;;5139931;27;20667;-69
2022/05/05 07:24:54;;;;;;;0.30;0.30;;;17.30;99.90;17.60;101967.00;;;;5122798;27;20209;-69
2022/05/05 07:27:22;;;;;;;0.33;0.33;;;17.50;99.90;17.00;101948.00;;;;5122723;27;20177;-70
2022/05/05 07:29:50;;;;;;;0.30;0.30;;;17.60;99.90;16.80;101973.00;;;;5140067;27;20203;-70
2022/05/05 07:32:24;;;;;;;3.97;2.33;;;17.10;99.90;17.50;101997.00;;;;5122569;27;20304;-70
2022/05/05 07:34:57;;;;;;;0.60;0.60;;;17.50;99.90;15.40;101968.00;;;;5139505;27;20205;-71
2022/05/05 07:37:32;;;;;;;0.30;0.30;;;16.50;99.90;16.80;101990.00;;;;5123113;27;20182;-71
2022/05/05 07:40:01;;;;;;;0.20;0.20;;;16.70;99.90;17.90;101994.00;;;;5139946;27;20649;-70
2022/05/05 07:42:26;;;;;;;0.30;0.30;;;17.40;99.90;18.20;101997.00;;;;5137325;27;20324;-71
2022/05/05 07:44:55;;;;;;;1.00;0.90;;;17.90;99.90;18.80;102002.00;;;;5124302;27;20320;-72
2022/05/05 07:47:25;;;;;;;1.80;1.80;;;18.30;99.90;18.70;102006.00;;;;5126840;27;20607;-71
2022/05/05 07:50:01;;;;;;;0.30;0.30;;;18.40;99.90;18.70;102010.00;;;;5102826;27;20189;-72
2022/05/05 07:52:31;;;;;;;0.30;0.30;;;18.50;99.90;19.10;102008.00;;;;5119129;27;20203;-71
2022/05/05 07:54:56;;;;;;;3.73;3.10;;;18.70;99.90;17.80;101989.00;;;;5119264;27;20213;-72
2022/05/05 07:57:23;;;;;;;4.67;1.53;;;17.90;99.90;18.30;102005.00;;;;5101679;27;20650;-71
2022/05/05 07:59:51;;;;;;;1.07;1.07;;;18.30;99.90;18.10;101992.00;;;;5101507;27;20181;-72
2022/05/05 08:02:19;;;;;;;0.40;0.40;;;18.30;99.90;18.40;102005.00;;;;5127116;27;20765;-73
2022/05/05 08:04:48;;;;;;;0.85;0.85;;;18.60;99.90;17.50;101998.00;;;;5139364;27;20171;-72
2022/05/05 08:07:19;;;;;;;0.30;0.30;;;18.40;99.90;19.00;102018.00;;;;5132385;27;20268;-72
2022/05/05 08:09:45;;;;;;;1.48;1.48;;;18.70;99.90;19.10;102026.00;;;;5142306;27;20198;-73
2022/05/05 08:12:11;;;;;;;5.03;4.28;;;18.90;99.90;16.60;101959.00;;;;5100923;27;20669;-73
2022/05/05 08:14:39;;;;;;;0.50;0.50;;;17.90;99.90;17.10;102001.00;;;;5125356;27;20263;-73
2022/05/05 08:17:07;;;;;;;0.40;0.40;;;17.50;99.90;17.90;101983.00;;;;5134034;27;20192;-73
2022/05/05 08:19:36;;;;;;;0.73;0.73;;;17.70;99.90;18.50;102027.00;;;;5138200;27;20191;-72
2022/05/05 08:22:02;;;;;;;0.40;0.40;;;18.20;99.90;18.30;102035.00;;;;5137392;27;20215;-73
2022/05/05 08:30:04;;;;;;;0.30;0.30;;;17.30;99.90;17.70;102013.00;;;;5141325;27;20184;-73
2022/05/05 08:32:33;;;;;;;4.73;4.33;;;17.70;99.90;17.90;102038.00;;;;5137710;27;20293;-72
2022/05/05 08:35:00;;;;;;;1.03;1.03;;;17.80;99.90;18.10;102039.00;;;;5120328;27;20585;-73
2022/05/05 08:37:26;;;;;;;0.50;0.50;;;18.10;99.90;19.00;102047.00;;;;5137619;27;20589;-72
2022/05/05 08:39:52;;;;;;;1.33;0.83;;;18.60;99.90;19.40;102070.00;;;;5120768;27;20205;-73
2022/05/05 08:42:21;;;;;;;1.53;1.03;;;19.20;99.90;19.90;102086.00;;;;5120537;27;20676;-72
2022/05/05 08:44:46;;;;;;;0.30;0.30;;;19.40;99.90;20.10;102091.00;;;;5138691;27;20173;-72
2022/05/05 08:47:16;;;;;;;1.27;0.95;;;19.80;99.90;20.00;102097.00;;;;5121353;27;20270;-72
2022/05/05 08:49:47;;;;;;;0.20;0.20;;;20.00;99.90;20.30;102063.00;;;;5121278;27;20186;-73
2022/05/05 08:52:21;;;;;;;0.80;0.77;;;19.90;99.90;20.10;102098.00;;;;5138175;27;20205;-73
2022/05/05 08:54:48;;;;;;;0.30;0.30;;;19.90;99.90;19.60;102103.00;;;;5138369;27;20626;-72
2022/05/05 08:57:15;;;;;;;0.20;0.20;;;19.80;99.90;20.10;102103.00;;;;5156430;27;20173;-72
2022/05/05 08:59:44;;;;;;;0.73;0.73;;;19.80;99.90;19.90;102107.00;;;;5120933;27;20648;-71
2022/05/05 09:02:10;;;;;;;0.47;0.45;;;19.80;99.90;20.50;102121.00;;;;5138344;27;20641;-73
2022/05/05 09:04:36;;;;;;;0.20;0.20;;;20.00;99.90;20.80;102125.00;;;;5137994;27;20510;-72
2022/05/05 09:07:05;;;;;;;1.05;1.05;;;20.20;99.90;20.10;102110.00;;;;5156709;27;20178;-72
2022/05/05 09:09:36;;;;;;;0.50;0.50;;;19.90;99.90;19.10;102119.00;;;;5137906;27;20689;-72
2022/05/05 09:12:20;;;;;;;1.70;1.60;;;19.60;99.90;19.50;102105.00;;;;5137751;27;20208;-72
2022/05/05 09:14:53;;;;;;;0.20;0.20;;;19.30;99.90;20.20;102127.00;;;;5137939;27;20537;-72
2022/05/05 09:17:29;;;;;;;0.22;0.22;;;19.70;99.90;20.80;102121.00;;;;5155529;27;20202;-72
2022/05/05 09:19:56;;;;;;;1.00;1.00;;;20.30;99.90;21.80;102130.00;;;;5138307;27;20544;-72
2022/05/05 09:22:27;;;;;;;5.55;4.85;;;21.10;99.90;21.10;102169.00;;;;5137482;27;20171;-72
2022/05/05 09:24:57;;;;;;;1.75;1.65;;;21.10;99.90;21.10;102166.00;;;;5137395;27;20182;-72
2022/05/05 09:27:33;;;;;;;0.77;0.77;;;20.90;99.90;19.20;102130.00;;;;5120472;27;20211;-72
2022/05/05 09:30:12;;;;;;;0.10;0.10;;;19.90;99.90;19.70;102142.00;;;;5121104;27;20631;-72
2022/05/05 09:32:42;;;;;;;1.33;1.33;;;20.10;99.90;21.50;102119.00;;;;5137164;27;20210;-72
2022/05/05 09:35:18;;;;;;;0.60;0.60;;;20.60;99.90;21.80;102151.00;;;;5155856;27;20166;-72
2022/05/05 09:37:50;;;;;;;0.63;0.63;;;21.40;99.90;22.00;102174.00;;;;5120242;27;20189;-73
2022/05/05 09:40:18;;;;;;;6.18;4.20;;;21.80;99.90;20.70;102188.00;;;;5155648;27;20166;-72
2022/05/05 09:42:47;;;;;;;0.17;0.17;;;21.60;99.90;19.00;102139.00;;;;5137359;27;20182;-72
2022/05/05 09:45:36;;;;;;;0.30;0.30;;;19.70;99.90;21.20;102168.00;;;;5137234;27;20589;-72
2022/05/05 09:48:06;;;;;;;4.45;3.30;;;20.40;99.90;22.40;102198.00;;;;5138016;27;20190;-73
2022/05/05 09:50:34;;;;;;;0.10;0.10;;;21.50;99.90;21.40;102188.00;;;;5137509;27;20175;-72
2022/05/05 09:58:39;;;;;;;1.08;0.82;;;20.20;99.90;20.00;102188.00;;;;5139943;27;20238;-73
2022/05/05 10:01:13;;;;;;;0.20;0.20;;;20.40;99.90;21.70;102193.00;;;;5137277;27;20178;-72
2022/05/05 10:04:00;;;;;;;0.10;0.10;;;21.00;99.90;22.20;102213.00;;;;5120151;27;20549;-72
2022/05/05 10:06:45;;;;;;;4.30;3.45;;;21.50;99.90;21.10;102218.00;;;;5121319;27;20197;-71
2022/05/05 10:09:12;;;;;;;0.28;0.22;;;21.40;99.90;20.90;102201.00;;;;5119476;27;20243;-71
2022/05/05 10:11:39;;;;;;;1.17;1.17;;;20.90;99.90;21.60;102204.00;;;;5136726;27;20210;-72
2022/05/05 10:14:07;;;;;;;0.10;0.10;;;20.90;99.90;19.50;102187.00;;;;5155207;27;20198;-72
2022/05/05 10:16:36;;;;;;;2.03;1.88;;;20.10;99.90;20.70;102199.00;;;;5119754;27;20187;-72
2022/05/05 10:19:03;;;;;;;6.03;3.53;;;20.50;99.90;19.70;102182.00;;;;5136590;27;20606;-72
2022/05/05 10:33:12;;;;;;;3.95;3.38;;;21.60;99.90;21.10;102202.00;;;;5114549;27;1285621;-73
2022/05/05 10:35:47;;;;;;;0.10;0.10;;;21.60;99.90;21.00;102191.00;;;;5130568;28;20275;-72
2022/05/05 10:38:42;;;;;;;4.95;4.55;;;20.90;99.90;21.00;102191.00;;;;5130456;28;20638;-73
2022/05/05 10:41:40;;;;;;;8.13;5.43;;;20.90;99.90;21.00;102193.00;;;;5130530;28;20214;-73
2022/05/05 10:44:18;;;;;;;2.05;1.95;;;20.80;99.90;21.70;102202.00;;;;5130272;28;20180;-73
2022/05/05 10:46:55;;;;;;;2.08;1.98;;;21.10;99.90;21.40;102178.00;;;;5130392;28;20582;-72
2022/05/05 10:49:42;;;;;;;0.10;0.10;;;21.20;99.90;21.50;102177.00;;;;5131945;28;20171;-73
2022/05/05 10:52:13;;;;;;;1.00;1.00;;;21.10;99.90;20.70;102203.00;;;;5129812;28;20200;-73
2022/05/05 10:54:53;;;;;;;12.05;2.88;;;20.90;99.90;19.60;102183.00;;;;5130177;28;20213;-72
2022/05/05 10:57:25;;;;;;;0.40;0.40;;;20.00;99.90;20.40;102186.00;;;;5113092;28;20539;-73
2022/05/05 11:00:19;;;;;;;0.75;0.75;;;20.00;99.90;21.30;102199.00;;;;5131057;28;20191;-73
2022/05/05 11:03:00;;;;;;;0.10;0.10;;;20.50;99.90;19.50;102188.00;;;;5129943;28;20172;-73
2022/05/05 11:05:35;;;;;;;4.32;3.60;;;20.00;99.90;19.00;102183.00;;;;5129913;28;20192;-73
2022/05/05 11:08:13;;;;;;;4.15;2.60;;;19.60;99.90;17.90;102142.00;;;;5130365;28;20179;-72
2022/05/05 11:11:40;;;;;;;5.20;3.30;;;18.50;99.90;19.00;102163.00;;;;5131130;27;20164;-72
2022/05/05 11:13:38;;;;;;;3.60;3.30;;;18.60;99.90;18.00;102151.00;;;;5130972;28;20202;-72
2022/05/05 11:22:12;;;;;;;0.98;0.80;;;18.90;99.90;18.60;102159.00;;;;5130940;28;20198;-72
2022/05/05 11:24:47;;;;;;;0.17;0.17;;;18.90;99.90;18.10;102137.00;;;;5129861;28;20638;-73
2022/05/05 11:27:21;;;;;;;0.20;0.20;;;18.50;99.90;19.10;102144.00;;;;5129306;28;20193;-73
2022/05/05 11:29:55;;;;;;;0.77;0.77;;;18.70;99.90;19.60;102155.00;;;;5129713;28;20178;-73
2022/05/05 11:32:35;;;;;;;0.20;0.20;;;19.00;99.90;19.60;102160.00;;;;5129033;28;20221;-73
2022/05/05 11:35:02;;;;;;;0.10;0.10;;;19.20;99.90;19.80;102171.00;;;;5129131;28;20181;-72
2022/05/05 11:37:29;;;;;;;0.20;0.20;;;19.40;99.90;20.00;102169.00;;;;5129445;28;20223;-73
2022/05/05 11:40:00;;;;;;;0.70;0.70;;;19.60;99.90;19.50;102133.00;;;;5129647;28;20178;-72
2022/05/05 11:42:28;;;;;;;0.20;0.20;;;19.50;99.90;19.10;102140.00;;;;5129224;27;20209;-72
2022/05/05 11:44:53;;;;;;;2.87;2.47;;;19.10;99.90;19.00;102142.00;;;;5098269;28;20603;-72
2022/05/05 11:47:22;;;;;;;0.20;0.20;;;18.90;99.90;18.70;102150.00;;;;5098592;28;20219;-73
2022/05/05 11:49:52;;;;;;;1.87;1.70;;;18.70;99.90;19.50;102162.00;;;;5116572;28;20181;-73
2022/05/05 11:52:26;;;;;;;0.40;0.40;;;18.90;99.90;19.90;102138.00;;;;5115324;28;20540;-73